createdAt,value
2018-12-05T00:00:08.325Z,971.53
2018-12-05T00:01:08.260Z,971.53
2018-12-05T00:02:08.194Z,971.57
2018-12-05T00:03:08.128Z,971.55
2018-12-05T00:04:08.061Z,971.57
2018-12-05T00:05:07.996Z,971.56
2018-12-05T00:06:07.930Z,971.60
2018-12-05T00:07:07.864Z,971.57
2018-12-05T00:08:07.797Z,971.60
2018-12-05T00:09:07.731Z,971.61
2018-12-05T00:10:07.666Z,971.59
2018-12-05T00:11:07.599Z,971.57
2018-12-05T00:12:07.534Z,971.56
2018-12-05T00:13:07.469Z,971.55
2018-12-05T00:14:07.409Z,971.53
2018-12-05T00:15:07.337Z,971.50
2018-12-05T00:16:07.269Z,971.50
2018-12-05T00:17:07.206Z,971.49
2018-12-05T00:18:07.164Z,971.48
2018-12-05T00:19:07.070Z,971.46
2018-12-05T00:20:07.008Z,971.47
2018-12-05T00:21:06.941Z,971.49
2018-12-05T00:22:06.873Z,971.46
2018-12-05T00:23:06.805Z,971.49
2018-12-05T00:24:06.738Z,971.46
2018-12-05T00:25:06.673Z,971.41
2018-12-05T00:26:06.607Z,971.42
2018-12-05T00:27:06.541Z,971.42
2018-12-05T00:28:06.476Z,971.44
2018-12-05T00:29:06.409Z,971.40
2018-12-05T00:30:06.341Z,971.38
2018-12-05T00:31:06.277Z,971.38
2018-12-05T00:32:06.209Z,971.37
2018-12-05T00:33:06.142Z,971.35
2018-12-05T00:34:06.077Z,971.35
2018-12-05T00:35:06.011Z,971.34
2018-12-05T00:36:05.944Z,971.32
2018-12-05T00:37:05.892Z,971.30
2018-12-05T00:38:05.812Z,971.29
2018-12-05T00:39:05.746Z,971.27
2018-12-05T00:40:05.678Z,971.25
2018-12-05T00:41:05.615Z,971.27
2018-12-05T00:42:05.546Z,971.21
2018-12-05T00:43:05.482Z,971.19
2018-12-05T00:44:05.413Z,971.13
2018-12-05T00:45:05.350Z,971.10
2018-12-05T00:46:05.281Z,971.16
2018-12-05T00:47:05.240Z,971.12
2018-12-05T00:48:05.148Z,971.14
2018-12-05T00:49:05.082Z,971.12
2018-12-05T00:50:05.018Z,971.17
2018-12-05T00:51:04.950Z,971.16
2018-12-05T00:52:04.882Z,971.15
2018-12-05T00:53:04.819Z,971.19
2018-12-05T00:54:04.753Z,971.17
2018-12-05T00:55:04.685Z,971.19
2018-12-05T00:56:04.619Z,971.18
2018-12-05T00:57:04.552Z,971.22
2018-12-05T00:58:04.515Z,971.21
2018-12-05T00:59:04.421Z,971.18
2018-12-05T01:00:04.353Z,971.21
2018-12-05T01:01:04.287Z,971.21
2018-12-05T01:02:04.221Z,971.26
2018-12-05T01:03:04.156Z,971.31
2018-12-05T01:04:04.091Z,971.32
2018-12-05T01:05:04.021Z,971.29
2018-12-05T01:06:03.955Z,971.29
2018-12-05T01:07:03.889Z,971.27
2018-12-05T01:08:03.823Z,971.26
2018-12-05T01:09:03.768Z,971.25
2018-12-05T01:10:03.692Z,971.24
2018-12-05T01:11:03.624Z,971.23
2018-12-05T01:12:03.560Z,971.27
2018-12-05T01:13:03.492Z,971.29
2018-12-05T01:14:03.424Z,971.28
2018-12-05T01:15:03.359Z,971.28
2018-12-05T01:16:03.292Z,971.27
2018-12-05T01:17:03.226Z,971.26
2018-12-05T01:18:03.160Z,971.27
2018-12-05T01:19:03.097Z,971.28
2018-12-05T01:20:03.028Z,971.28
2018-12-05T01:21:02.962Z,971.25
2018-12-05T01:22:02.895Z,971.23
2018-12-05T01:23:02.828Z,971.23
2018-12-05T01:24:02.762Z,971.19
2018-12-05T01:25:02.697Z,971.19
2018-12-05T01:26:02.629Z,971.20
2018-12-05T01:27:02.562Z,971.22
2018-12-05T01:28:02.496Z,971.19
2018-12-05T01:29:02.434Z,971.21
2018-12-05T01:30:02.364Z,971.24
2018-12-05T01:31:02.299Z,971.21
2018-12-05T01:32:02.231Z,971.26
2018-12-05T01:33:02.165Z,971.22
2018-12-05T01:34:02.098Z,971.26
2018-12-05T01:35:02.036Z,971.27
2018-12-05T01:36:01.966Z,971.23
2018-12-05T01:37:01.899Z,971.26
2018-12-05T01:38:01.833Z,971.29
2018-12-05T01:39:01.766Z,971.28
2018-12-05T01:40:01.707Z,971.27
2018-12-05T01:41:01.633Z,971.29
2018-12-05T01:42:01.569Z,971.31
2018-12-05T01:43:01.501Z,971.27
2018-12-05T01:44:01.434Z,971.27
2018-12-05T01:45:01.369Z,971.27
2018-12-05T01:46:01.303Z,971.29
2018-12-05T01:47:01.238Z,971.25
2018-12-05T01:48:01.169Z,971.28
2018-12-05T01:49:01.104Z,971.28
2018-12-05T01:50:01.038Z,971.32
2018-12-05T01:51:00.973Z,971.34
2018-12-05T01:52:00.906Z,971.30
2018-12-05T01:53:00.837Z,971.26
2018-12-05T01:54:00.772Z,971.21
2018-12-05T01:55:00.709Z,971.24
2018-12-05T01:56:00.640Z,971.24
2018-12-05T01:57:00.573Z,971.28
2018-12-05T01:58:00.509Z,971.26
2018-12-05T01:59:00.441Z,971.26
2018-12-05T02:00:00.375Z,971.32
2018-12-05T02:01:00.309Z,971.30
2018-12-05T02:02:00.243Z,971.33
2018-12-05T02:03:00.176Z,971.32
2018-12-05T02:04:00.109Z,971.34
2018-12-05T02:05:00.043Z,971.36
2018-12-05T02:05:59.977Z,971.38
2018-12-05T02:06:59.912Z,971.34
2018-12-05T02:07:59.845Z,971.44
2018-12-05T02:08:59.778Z,971.36
2018-12-05T02:09:59.712Z,971.37
2018-12-05T02:10:59.644Z,971.31
2018-12-05T02:11:59.582Z,971.33
2018-12-05T02:12:59.512Z,971.31
2018-12-05T02:13:59.480Z,971.29
2018-12-05T02:14:59.381Z,971.23
2018-12-05T02:15:59.314Z,971.14
2018-12-05T02:16:59.249Z,971.13
2018-12-05T02:17:59.182Z,971.08
2018-12-05T02:18:59.115Z,971.05
2018-12-05T02:19:59.048Z,970.99
2018-12-05T02:20:58.983Z,971.00
2018-12-05T02:21:58.915Z,971.00
2018-12-05T02:22:58.850Z,970.94
2018-12-05T02:23:58.784Z,970.93
2018-12-05T02:24:58.717Z,970.92
2018-12-05T02:25:58.651Z,970.89
2018-12-05T02:26:58.585Z,970.92
2018-12-05T02:27:58.518Z,970.98
2018-12-05T02:28:58.452Z,970.96
2018-12-05T02:29:58.386Z,970.94
2018-12-05T02:30:58.321Z,970.95
2018-12-05T02:31:58.253Z,970.99
2018-12-05T02:32:58.186Z,970.99
2018-12-05T02:33:58.121Z,971.00
2018-12-05T02:34:58.057Z,971.01
2018-12-05T02:35:57.993Z,971.02
2018-12-05T02:36:57.921Z,970.98
2018-12-05T02:37:57.854Z,971.00
2018-12-05T02:38:57.790Z,970.99
2018-12-05T02:39:57.723Z,970.97
2018-12-05T02:40:57.659Z,970.94
2018-12-05T02:41:57.590Z,970.95
2018-12-05T02:42:57.524Z,970.95
2018-12-05T02:43:57.458Z,970.97
2018-12-05T02:44:57.556Z,970.94
2018-12-05T02:45:57.329Z,970.99
2018-12-05T02:46:57.260Z,971.00
2018-12-05T02:47:57.189Z,971.03
2018-12-05T02:48:57.132Z,971.01
2018-12-05T02:49:57.063Z,971.04
2018-12-05T02:50:56.993Z,971.06
2018-12-05T02:51:56.926Z,971.07
2018-12-05T02:52:56.861Z,971.06
2018-12-05T02:53:56.795Z,971.05
2018-12-05T02:54:56.756Z,971.05
2018-12-05T02:55:56.661Z,971.06
2018-12-05T02:56:56.596Z,971.04
2018-12-05T02:57:56.529Z,971.04
2018-12-05T02:58:56.466Z,971.05
2018-12-05T02:59:56.398Z,971.04
2018-12-05T03:00:56.331Z,971.02
2018-12-05T03:01:56.269Z,971.03
2018-12-05T03:02:56.199Z,971.05
2018-12-05T03:03:56.141Z,971.07
2018-12-05T03:04:56.164Z,971.08
2018-12-05T03:05:56.000Z,971.09
2018-12-05T03:06:55.932Z,971.10
2018-12-05T03:07:55.867Z,971.16
2018-12-05T03:08:55.795Z,971.17
2018-12-05T03:09:55.739Z,971.22
2018-12-05T03:10:55.669Z,971.26
2018-12-05T03:11:55.602Z,971.25
2018-12-05T03:12:55.537Z,971.28
2018-12-05T03:13:55.472Z,971.23
2018-12-05T03:14:55.404Z,971.23
2018-12-05T03:15:55.337Z,971.24
2018-12-05T03:16:55.269Z,971.21
2018-12-05T03:17:55.204Z,971.17
2018-12-05T03:18:55.145Z,971.17
2018-12-05T03:19:55.074Z,971.07
2018-12-05T03:20:55.005Z,971.07
2018-12-05T03:21:54.939Z,971.04
2018-12-05T03:22:54.872Z,971.04
2018-12-05T03:23:54.808Z,971.03
2018-12-05T03:24:54.742Z,971.03
2018-12-05T03:25:54.683Z,971.02
2018-12-05T03:26:54.608Z,971.02
2018-12-05T03:27:54.542Z,970.96
2018-12-05T03:28:54.475Z,970.94
2018-12-05T03:29:54.408Z,970.96
2018-12-05T03:30:54.344Z,971.01
2018-12-05T03:31:54.295Z,970.97
2018-12-05T03:32:54.216Z,971.06
2018-12-05T03:33:54.145Z,971.07
2018-12-05T03:34:54.079Z,971.03
2018-12-05T03:35:54.014Z,971.08
2018-12-05T03:36:53.951Z,971.06
2018-12-05T03:37:53.936Z,971.05
2018-12-05T03:38:53.814Z,971.09
2018-12-05T03:39:53.767Z,971.14
2018-12-05T03:40:53.743Z,971.11
2018-12-05T03:41:53.706Z,971.11
2018-12-05T03:42:53.557Z,971.08
2018-12-05T03:43:53.521Z,971.05
2018-12-05T03:44:53.454Z,971.06
2018-12-05T03:45:53.349Z,971.03
2018-12-05T03:46:53.284Z,971.04
2018-12-05T03:47:53.216Z,971.00
2018-12-05T03:48:53.153Z,971.03
2018-12-05T03:49:53.084Z,971.03
2018-12-05T03:50:53.022Z,971.07
2018-12-05T03:51:52.952Z,971.05
2018-12-05T03:52:52.885Z,971.10
2018-12-05T03:53:52.819Z,971.09
2018-12-05T03:54:52.757Z,971.17
2018-12-05T03:55:52.686Z,971.14
2018-12-05T03:56:52.620Z,971.18
2018-12-05T03:57:52.553Z,971.17
2018-12-05T03:58:52.487Z,971.22
2018-12-05T03:59:52.420Z,971.17
2018-12-05T04:00:52.354Z,971.21
2018-12-05T04:01:52.289Z,971.18
2018-12-05T04:02:52.221Z,971.18
2018-12-05T04:03:52.159Z,971.20
2018-12-05T04:04:52.088Z,971.22
2018-12-05T04:05:52.024Z,971.27
2018-12-05T04:06:51.958Z,971.30
2018-12-05T04:07:51.891Z,971.33
2018-12-05T04:08:51.824Z,971.33
2018-12-05T04:09:51.758Z,971.33
2018-12-05T04:10:51.692Z,971.34
2018-12-05T04:11:51.625Z,971.27
2018-12-05T04:12:51.566Z,971.27
2018-12-05T04:13:51.496Z,971.28
2018-12-05T04:14:51.426Z,971.24
2018-12-05T04:15:51.362Z,971.24
2018-12-05T04:16:51.293Z,971.24
2018-12-05T04:17:51.229Z,971.18
2018-12-05T04:18:51.161Z,971.22
2018-12-05T04:19:51.094Z,971.24
2018-12-05T04:20:51.028Z,971.23
2018-12-05T04:21:50.963Z,971.24
2018-12-05T04:22:50.895Z,971.24
2018-12-05T04:23:50.829Z,971.25
2018-12-05T04:24:50.766Z,971.26
2018-12-05T04:25:50.696Z,971.18
2018-12-05T04:26:50.630Z,971.22
2018-12-05T04:27:50.565Z,971.19
2018-12-05T04:28:50.498Z,971.17
2018-12-05T04:29:50.431Z,971.15
2018-12-05T04:30:50.367Z,971.19
2018-12-05T04:31:50.299Z,971.19
2018-12-05T04:32:50.232Z,971.17
2018-12-05T04:33:50.166Z,971.16
2018-12-05T04:34:50.101Z,971.19
2018-12-05T04:35:50.035Z,971.20
2018-12-05T04:36:49.967Z,971.20
2018-12-05T04:37:49.902Z,971.16
2018-12-05T04:38:49.835Z,971.22
2018-12-05T04:39:49.766Z,971.20
2018-12-05T04:40:49.703Z,971.22
2018-12-05T04:41:49.636Z,971.25
2018-12-05T04:42:49.570Z,971.24
2018-12-05T04:43:49.505Z,971.26
2018-12-05T04:44:49.436Z,971.31
2018-12-05T04:45:49.371Z,971.25
2018-12-05T04:46:49.303Z,971.24
2018-12-05T04:47:49.239Z,971.25
2018-12-05T04:48:49.172Z,971.23
2018-12-05T04:49:49.105Z,971.21
2018-12-05T04:50:49.041Z,971.18
2018-12-05T04:51:48.972Z,971.13
2018-12-05T04:52:48.907Z,971.10
2018-12-05T04:53:48.842Z,971.09
2018-12-05T04:54:48.778Z,971.08
2018-12-05T04:55:48.714Z,971.13
2018-12-05T04:56:48.642Z,971.11
2018-12-05T04:57:48.576Z,971.11
2018-12-05T04:58:48.510Z,971.10
2018-12-05T04:59:48.445Z,971.13
2018-12-05T05:00:48.378Z,971.10
2018-12-05T05:01:48.310Z,971.10
2018-12-05T05:02:48.245Z,971.13
2018-12-05T05:03:48.179Z,971.17
2018-12-05T05:04:48.111Z,971.20
2018-12-05T05:05:48.045Z,971.17
2018-12-05T05:06:47.986Z,971.16
2018-12-05T05:07:47.913Z,971.13
2018-12-05T05:08:47.847Z,971.14
2018-12-05T05:09:47.785Z,971.16
2018-12-05T05:10:47.715Z,971.15
2018-12-05T05:11:47.648Z,971.14
2018-12-05T05:12:47.582Z,971.11
2018-12-05T05:13:47.515Z,971.08
2018-12-05T05:14:47.448Z,971.09
2018-12-05T05:15:47.383Z,971.09
2018-12-05T05:16:47.318Z,971.11
2018-12-05T05:17:47.252Z,971.07
2018-12-05T05:18:47.183Z,971.12
2018-12-05T05:19:47.117Z,971.12
2018-12-05T05:20:47.051Z,971.11
2018-12-05T05:21:46.986Z,971.14
2018-12-05T05:22:46.920Z,971.11
2018-12-05T05:23:46.864Z,971.10
2018-12-05T05:24:46.788Z,971.10
2018-12-05T05:25:46.719Z,971.09
2018-12-05T05:26:46.653Z,971.10
2018-12-05T05:27:46.589Z,971.08
2018-12-05T05:28:46.520Z,971.09
2018-12-05T05:29:46.454Z,971.08
2018-12-05T05:30:46.389Z,971.10
2018-12-05T05:31:46.322Z,971.14
2018-12-05T05:32:46.254Z,971.13
2018-12-05T05:33:46.191Z,971.16
2018-12-05T05:34:46.122Z,971.15
2018-12-05T05:35:46.074Z,971.18
2018-12-05T05:36:45.989Z,971.17
2018-12-05T05:37:45.929Z,971.17
2018-12-05T05:38:45.859Z,971.17
2018-12-05T05:39:45.792Z,971.14
2018-12-05T05:40:45.725Z,971.14
2018-12-05T05:41:45.657Z,971.12
2018-12-05T05:42:45.598Z,971.09
2018-12-05T05:43:45.524Z,971.13
2018-12-05T05:44:45.459Z,971.11
2018-12-05T05:45:45.393Z,971.13
2018-12-05T05:46:45.327Z,971.15
2018-12-05T05:47:45.260Z,971.22
2018-12-05T05:48:45.194Z,971.21
2018-12-05T05:49:45.128Z,971.20
2018-12-05T05:50:45.063Z,971.13
2018-12-05T05:51:44.999Z,971.17
2018-12-05T05:52:44.941Z,971.15
2018-12-05T05:53:44.863Z,971.16
2018-12-05T05:54:44.797Z,971.14
2018-12-05T05:55:44.731Z,971.09
2018-12-05T05:56:45.445Z,971.07
2018-12-05T05:57:44.598Z,971.10
2018-12-05T05:58:44.532Z,971.04
2018-12-05T05:59:44.465Z,971.06
2018-12-05T06:00:44.400Z,971.10
2018-12-05T06:01:44.333Z,971.12
2018-12-05T06:02:44.269Z,971.12
2018-12-05T06:03:44.202Z,971.12
2018-12-05T06:04:44.131Z,971.12
2018-12-05T06:05:44.075Z,971.12
2018-12-05T06:06:44.008Z,971.15
2018-12-05T06:07:43.935Z,971.14
2018-12-05T06:08:43.869Z,971.15
2018-12-05T06:09:43.804Z,971.14
2018-12-05T06:10:43.734Z,971.16
2018-12-05T06:11:43.670Z,971.20
2018-12-05T06:12:43.605Z,971.23
2018-12-05T06:13:43.538Z,971.23
2018-12-05T06:14:43.474Z,971.24
2018-12-05T06:15:43.406Z,971.22
2018-12-05T06:16:43.338Z,971.23
2018-12-05T06:17:43.273Z,971.27
2018-12-05T06:18:43.215Z,971.25
2018-12-05T06:19:43.141Z,971.23
2018-12-05T06:20:43.075Z,971.23
2018-12-05T06:21:43.008Z,971.24
2018-12-05T06:22:42.943Z,971.25
2018-12-05T06:23:42.878Z,971.24
2018-12-05T06:24:42.811Z,971.20
2018-12-05T06:25:42.743Z,971.22
2018-12-05T06:26:42.677Z,971.22
2018-12-05T06:27:42.610Z,971.21
2018-12-05T06:28:42.547Z,971.24
2018-12-05T06:29:42.478Z,971.25
2018-12-05T06:30:42.413Z,971.24
2018-12-05T06:31:42.346Z,971.24
2018-12-05T06:32:42.279Z,971.28
2018-12-05T06:33:42.216Z,971.29
2018-12-05T06:34:42.150Z,971.30
2018-12-05T06:35:42.083Z,971.31
2018-12-05T06:36:42.025Z,971.30
2018-12-05T06:37:41.949Z,971.28
2018-12-05T06:38:41.882Z,971.34
2018-12-05T06:39:41.815Z,971.35
2018-12-05T06:40:41.750Z,971.37
2018-12-05T06:41:41.683Z,971.40
2018-12-05T06:42:41.617Z,971.43
2018-12-05T06:43:41.551Z,971.46
2018-12-05T06:44:41.485Z,971.49
2018-12-05T06:45:41.418Z,971.49
2018-12-05T06:46:41.353Z,971.50
2018-12-05T06:47:41.286Z,971.55
2018-12-05T06:48:41.220Z,971.53
2018-12-05T06:49:41.155Z,971.52
2018-12-05T06:50:41.088Z,971.59
2018-12-05T06:51:41.021Z,971.61
2018-12-05T06:52:40.957Z,971.60
2018-12-05T06:53:40.888Z,971.66
2018-12-05T06:54:40.823Z,971.65
2018-12-05T06:55:40.757Z,971.64
2018-12-05T06:56:40.690Z,971.63
2018-12-05T06:57:40.623Z,971.64
2018-12-05T06:58:40.560Z,971.63
2018-12-05T06:59:40.493Z,971.62
2018-12-05T07:00:40.426Z,971.59
2018-12-05T07:01:40.357Z,971.61
2018-12-05T07:02:40.293Z,971.56
2018-12-05T07:03:40.227Z,971.55
2018-12-05T07:04:40.162Z,971.59
2018-12-05T07:05:40.096Z,971.55
2018-12-05T07:06:40.029Z,971.51
2018-12-05T07:07:39.961Z,971.54
2018-12-05T07:08:39.925Z,971.53
2018-12-05T07:09:39.830Z,971.51
2018-12-05T07:10:39.762Z,971.51
2018-12-05T07:11:39.699Z,971.53
2018-12-05T07:12:39.632Z,971.54
2018-12-05T07:13:39.566Z,971.59
2018-12-05T07:14:39.498Z,971.58
2018-12-05T07:15:39.433Z,971.59
2018-12-05T07:16:39.366Z,971.60
2018-12-05T07:17:39.299Z,971.65
2018-12-05T07:18:39.237Z,971.66
2018-12-05T07:19:39.170Z,971.69
2018-12-05T07:20:39.106Z,971.69
2018-12-05T07:21:39.034Z,971.64
2018-12-05T07:22:38.969Z,971.68
2018-12-05T07:23:38.901Z,971.66
2018-12-05T07:24:38.837Z,971.69
2018-12-05T07:25:38.770Z,971.69
2018-12-05T07:26:38.704Z,971.72
2018-12-05T07:27:38.638Z,971.71
2018-12-05T07:28:38.570Z,971.71
2018-12-05T07:29:38.505Z,971.75
2018-12-05T07:30:38.439Z,971.77
2018-12-05T07:31:38.371Z,971.77
2018-12-05T07:32:38.307Z,971.82
2018-12-05T07:33:38.240Z,971.83
2018-12-05T07:34:38.174Z,971.82
2018-12-05T07:35:38.108Z,971.80
2018-12-05T07:36:38.043Z,971.77
2018-12-05T07:37:37.975Z,971.77
2018-12-05T07:38:37.910Z,971.78
2018-12-05T07:39:37.847Z,971.76
2018-12-05T07:40:37.779Z,971.74
2018-12-05T07:41:37.711Z,971.70
2018-12-05T07:42:37.644Z,971.70
2018-12-05T07:43:37.579Z,971.68
2018-12-05T07:44:37.513Z,971.67
2018-12-05T07:45:37.447Z,971.66
2018-12-05T07:46:37.381Z,971.67
2018-12-05T07:47:37.315Z,971.64
2018-12-05T07:48:37.246Z,971.65
2018-12-05T07:49:37.189Z,971.64
2018-12-05T07:50:37.115Z,971.61
2018-12-05T07:51:37.107Z,971.65
2018-12-05T07:52:37.722Z,971.65
2018-12-05T07:53:36.921Z,971.67
2018-12-05T07:54:38.157Z,971.70
2018-12-05T07:55:37.044Z,971.68
2018-12-05T07:56:36.721Z,971.70
2018-12-05T07:57:40.167Z,971.66
2018-12-05T07:58:36.589Z,971.62
2018-12-05T07:59:36.521Z,971.61
2018-12-05T08:00:36.458Z,971.61
2018-12-05T08:01:36.391Z,971.59
2018-12-05T08:02:36.325Z,971.61
2018-12-05T08:03:36.257Z,971.66
2018-12-05T08:04:36.187Z,971.66
2018-12-05T08:05:36.134Z,971.69
2018-12-05T08:06:36.061Z,971.68
2018-12-05T08:07:36.004Z,971.66
2018-12-05T08:08:35.927Z,971.63
2018-12-05T08:09:35.859Z,971.62
2018-12-05T08:10:35.798Z,971.63
2018-12-05T08:11:35.730Z,971.63
2018-12-05T08:12:35.666Z,971.63
2018-12-05T08:13:35.596Z,971.62
2018-12-05T08:14:35.532Z,971.55
2018-12-05T08:15:35.467Z,971.59
2018-12-05T08:16:35.403Z,971.57
2018-12-05T08:17:35.336Z,971.56
2018-12-05T08:18:35.269Z,971.55
2018-12-05T08:19:35.201Z,971.55
2018-12-05T08:20:35.137Z,971.56
2018-12-05T08:21:35.071Z,971.60
2018-12-05T08:22:35.005Z,971.64
2018-12-05T08:23:34.938Z,971.63
2018-12-05T08:24:34.874Z,971.62
2018-12-05T08:25:34.809Z,971.56
2018-12-05T08:26:34.742Z,971.50
2018-12-05T08:27:34.682Z,971.50
2018-12-05T08:28:34.611Z,971.47
2018-12-05T08:29:34.547Z,971.44
2018-12-05T08:30:34.478Z,971.43
2018-12-05T08:31:34.411Z,971.43
2018-12-05T08:32:34.350Z,971.48
2018-12-05T08:33:34.281Z,971.45
2018-12-05T08:34:34.214Z,971.47
2018-12-05T08:35:34.161Z,971.42
2018-12-05T08:36:34.086Z,971.45
2018-12-05T08:37:34.016Z,971.40
2018-12-05T08:38:33.950Z,971.46
2018-12-05T08:39:33.883Z,971.41
2018-12-05T08:40:33.819Z,971.46
2018-12-05T08:41:33.752Z,971.51
2018-12-05T08:42:33.687Z,971.53
2018-12-05T08:43:33.621Z,971.55
2018-12-05T08:44:33.555Z,971.51
2018-12-05T08:45:33.489Z,971.52
2018-12-05T08:46:33.424Z,971.57
2018-12-05T08:47:33.886Z,971.58
2018-12-05T08:48:33.291Z,971.62
2018-12-05T08:49:33.226Z,971.63
2018-12-05T08:50:33.160Z,971.62
2018-12-05T08:51:33.093Z,971.61
2018-12-05T08:52:33.030Z,971.59
2018-12-05T08:53:32.963Z,971.59
2018-12-05T08:54:32.897Z,971.62
2018-12-05T08:55:32.831Z,971.63
2018-12-05T08:56:32.766Z,971.65
2018-12-05T08:57:32.703Z,971.63
2018-12-05T08:58:32.635Z,971.61
2018-12-05T08:59:32.569Z,971.65
2018-12-05T09:00:32.504Z,971.66
2018-12-05T09:01:32.436Z,971.75
2018-12-05T09:02:32.372Z,971.75
2018-12-05T09:03:32.305Z,971.73
2018-12-05T09:04:32.243Z,971.70
2018-12-05T09:05:32.174Z,971.71
2018-12-05T09:06:32.110Z,971.68
2018-12-05T09:07:32.051Z,971.70
2018-12-05T09:08:31.978Z,971.67
2018-12-05T09:09:31.912Z,971.72
2018-12-05T09:10:31.847Z,971.68
2018-12-05T09:11:31.781Z,971.70
2018-12-05T09:12:31.716Z,971.75
2018-12-05T09:13:31.650Z,971.71
2018-12-05T09:14:31.583Z,971.70
2018-12-05T09:15:31.528Z,971.79
2018-12-05T09:16:31.451Z,971.84
2018-12-05T09:17:31.388Z,971.80
2018-12-05T09:18:31.321Z,971.79
2018-12-05T09:19:31.256Z,971.85
2018-12-05T09:20:31.189Z,971.85
2018-12-05T09:21:31.125Z,971.81
2018-12-05T09:22:31.061Z,971.88
2018-12-05T09:23:30.994Z,971.88
2018-12-05T09:24:30.932Z,971.86
2018-12-05T09:25:30.862Z,971.85
2018-12-05T09:26:30.798Z,971.79
2018-12-05T09:27:30.732Z,971.79
2018-12-05T09:28:30.667Z,971.74
2018-12-05T09:29:30.602Z,971.74
2018-12-05T09:30:30.538Z,971.73
2018-12-05T09:31:30.469Z,971.70
2018-12-05T09:32:30.404Z,971.67
2018-12-05T09:33:30.340Z,971.66
2018-12-05T09:34:31.220Z,971.71
2018-12-05T09:35:30.716Z,971.73
2018-12-05T09:36:30.717Z,971.71
2018-12-05T09:37:30.721Z,971.68
2018-12-05T09:38:30.720Z,971.68
2018-12-05T09:39:29.947Z,971.70
2018-12-05T09:40:29.880Z,971.69
2018-12-05T09:41:29.817Z,971.69
2018-12-05T09:42:29.752Z,971.68
2018-12-05T09:43:29.686Z,971.73
2018-12-05T09:44:29.624Z,971.71
2018-12-05T09:45:29.556Z,971.78
2018-12-05T09:46:29.492Z,971.79
2018-12-05T09:47:29.429Z,971.77
2018-12-05T09:48:29.358Z,971.75
2018-12-05T09:49:29.300Z,971.71
2018-12-05T09:50:29.234Z,971.69
2018-12-05T09:51:29.161Z,971.71
2018-12-05T09:52:29.097Z,971.64
2018-12-05T09:53:29.033Z,971.68
2018-12-05T09:54:28.966Z,971.63
2018-12-05T09:55:28.901Z,971.60
2018-12-05T09:56:28.835Z,971.62
2018-12-05T09:57:28.770Z,971.61
2018-12-05T09:58:28.705Z,971.69
2018-12-05T09:59:28.639Z,971.67
2018-12-05T10:00:28.581Z,971.67
2018-12-05T10:01:28.508Z,971.63
2018-12-05T10:02:28.443Z,971.62
2018-12-05T10:03:28.381Z,971.63
2018-12-05T10:04:28.313Z,971.62
2018-12-05T10:05:28.247Z,971.59
2018-12-05T10:06:28.181Z,971.54
2018-12-05T10:07:28.114Z,971.54
2018-12-05T10:08:28.051Z,971.50
2018-12-05T10:09:27.989Z,971.48
2018-12-05T10:10:27.921Z,971.48
2018-12-05T10:11:27.856Z,971.50
2018-12-05T10:12:27.792Z,971.49
2018-12-05T10:13:27.725Z,971.47
2018-12-05T10:14:27.660Z,971.49
2018-12-05T10:15:27.595Z,971.52
2018-12-05T10:16:27.533Z,971.54
2018-12-05T10:17:27.462Z,971.55
2018-12-05T10:18:27.398Z,971.54
2018-12-05T10:19:27.332Z,971.56
2018-12-05T10:20:27.271Z,971.53
2018-12-05T10:21:27.204Z,971.51
2018-12-05T10:22:27.138Z,971.49
2018-12-05T10:23:27.118Z,971.42
2018-12-05T10:24:27.010Z,971.34
2018-12-05T10:25:26.945Z,971.29
2018-12-05T10:26:26.878Z,971.27
2018-12-05T10:27:26.812Z,971.28
2018-12-05T10:28:26.745Z,971.27
2018-12-05T10:29:26.690Z,971.33
2018-12-05T10:30:26.618Z,971.27
2018-12-05T10:31:26.557Z,971.35
2018-12-05T10:32:26.486Z,971.32
2018-12-05T10:33:26.422Z,971.29
2018-12-05T10:34:26.377Z,971.27
2018-12-05T10:35:26.293Z,971.23
2018-12-05T10:36:26.225Z,971.21
2018-12-05T10:37:26.161Z,971.21
2018-12-05T10:38:26.096Z,971.21
2018-12-05T10:39:26.030Z,971.27
2018-12-05T10:40:25.964Z,971.25
2018-12-05T10:41:25.901Z,971.29
2018-12-05T10:42:25.845Z,971.26
2018-12-05T10:43:25.772Z,971.24
2018-12-05T10:44:25.704Z,971.29
2018-12-05T10:45:25.641Z,971.21
2018-12-05T10:46:25.575Z,971.22
2018-12-05T10:47:25.510Z,971.21
2018-12-05T10:48:25.445Z,971.22
2018-12-05T10:49:25.381Z,971.19
2018-12-05T10:50:25.313Z,971.17
2018-12-05T10:51:25.249Z,971.10
2018-12-05T10:52:25.185Z,971.09
2018-12-05T10:53:25.120Z,971.08
2018-12-05T10:54:25.053Z,971.05
2018-12-05T10:55:24.989Z,971.06
2018-12-05T10:56:24.924Z,971.02
2018-12-05T10:57:24.859Z,970.98
2018-12-05T10:58:24.944Z,970.99
2018-12-05T10:59:24.729Z,970.95
2018-12-05T11:00:24.663Z,970.96
2018-12-05T11:01:24.598Z,970.94
2018-12-05T11:02:24.534Z,970.99
2018-12-05T11:03:24.469Z,970.96
2018-12-05T11:04:24.403Z,970.94
2018-12-05T11:05:24.340Z,970.98
2018-12-05T11:06:24.273Z,970.97
2018-12-05T11:07:24.209Z,971.01
2018-12-05T11:08:24.146Z,970.98
2018-12-05T11:09:24.077Z,970.99
2018-12-05T11:10:24.012Z,970.95
2018-12-05T11:11:23.943Z,970.98
2018-12-05T11:12:23.884Z,970.91
2018-12-05T11:13:23.818Z,970.89
2018-12-05T11:14:23.754Z,970.88
2018-12-05T11:15:23.691Z,970.89
2018-12-05T11:16:23.624Z,970.86
2018-12-05T11:17:23.562Z,970.87
2018-12-05T11:18:23.494Z,970.89
2018-12-05T11:19:23.428Z,970.84
2018-12-05T11:20:23.364Z,970.83
2018-12-05T11:21:23.297Z,970.85
2018-12-05T11:22:23.234Z,970.85
2018-12-05T11:23:23.167Z,970.83
2018-12-05T11:24:23.103Z,970.84
2018-12-05T11:25:23.039Z,970.83
2018-12-05T11:26:22.973Z,970.90
2018-12-05T11:27:22.913Z,970.88
2018-12-05T11:28:22.844Z,970.85
2018-12-05T11:29:22.783Z,970.81
2018-12-05T11:30:22.724Z,970.73
2018-12-05T11:31:22.650Z,970.71
2018-12-05T11:32:22.583Z,970.68
2018-12-05T11:33:22.515Z,970.67
2018-12-05T11:34:22.452Z,970.67
2018-12-05T11:35:22.384Z,970.64
2018-12-05T11:36:22.323Z,970.65
2018-12-05T11:37:22.254Z,970.66
2018-12-05T11:38:22.192Z,970.59
2018-12-05T11:39:22.124Z,970.57
2018-12-05T11:40:22.072Z,970.56
2018-12-05T11:41:21.996Z,970.56
2018-12-05T11:42:21.930Z,970.58
2018-12-05T11:43:21.867Z,970.52
2018-12-05T11:44:21.798Z,970.52
2018-12-05T11:45:21.731Z,970.55
2018-12-05T11:46:21.666Z,970.52
2018-12-05T11:47:21.603Z,970.49
2018-12-05T11:48:21.540Z,970.54
2018-12-05T11:49:21.473Z,970.54
2018-12-05T11:50:21.407Z,970.53
2018-12-05T11:51:21.342Z,970.57
2018-12-05T11:52:21.276Z,970.57
2018-12-05T11:53:21.210Z,970.56
2018-12-05T11:54:21.147Z,970.57
2018-12-05T11:55:21.080Z,970.55
2018-12-05T11:56:21.015Z,970.54
2018-12-05T11:57:20.951Z,970.45
2018-12-05T11:58:20.885Z,970.46
2018-12-05T11:59:20.821Z,970.49
2018-12-05T12:00:20.755Z,970.43
2018-12-05T12:01:20.688Z,970.40
2018-12-05T12:02:22.449Z,970.34
2018-12-05T12:03:20.558Z,970.29
2018-12-05T12:04:20.493Z,970.29
2018-12-05T12:05:20.425Z,970.28
2018-12-05T12:06:20.363Z,970.27
2018-12-05T12:07:20.297Z,970.27
2018-12-05T12:08:20.231Z,970.27
2018-12-05T12:09:20.165Z,970.24
2018-12-05T12:10:20.101Z,970.25
2018-12-05T12:11:20.035Z,970.24
2018-12-05T12:12:19.969Z,970.23
2018-12-05T12:13:19.906Z,970.19
2018-12-05T12:14:19.841Z,970.18
2018-12-05T12:15:19.774Z,970.16
2018-12-05T12:16:19.710Z,970.14
2018-12-05T12:17:19.646Z,970.19
2018-12-05T12:18:19.585Z,970.22
2018-12-05T12:19:19.511Z,970.21
2018-12-05T12:20:19.448Z,970.19
2018-12-05T12:21:19.386Z,970.17
2018-12-05T12:22:19.319Z,970.18
2018-12-05T12:23:19.253Z,970.15
2018-12-05T12:24:19.187Z,970.14
2018-12-05T12:25:19.122Z,970.08
2018-12-05T12:26:19.065Z,970.09
2018-12-05T12:27:19.000Z,970.10